createdAt,value
2022-11-04T00:02:16.814Z,1631.95
2022-11-04T00:04:46.440Z,1630.15
2022-11-04T00:07:28.394Z,1633.38
2022-11-04T00:09:56.492Z,1631.63
2022-11-04T00:12:26.168Z,1628.47
2022-11-04T00:14:54.281Z,1626.22
2022-11-04T00:17:22.862Z,1628.70
2022-11-04T00:20:11.098Z,1621.45
2022-11-04T00:22:57.627Z,1623.80
2022-11-04T00:25:43.150Z,1626.97
2022-11-04T00:28:30.715Z,1627.18
2022-11-04T00:31:21.010Z,1622.40
2022-11-04T00:33:48.899Z,1621.00
2022-11-04T00:36:18.386Z,1623.22
2022-11-04T00:38:47.021Z,1629.65
2022-11-04T00:41:27.994Z,1626.07
2022-11-04T00:43:58.488Z,1623.72
2022-11-04T00:46:27.046Z,1624.60
2022-11-04T00:48:55.458Z,1626.60
2022-11-04T00:51:25.136Z,1631.33
2022-11-04T00:53:53.735Z,1623.03
2022-11-04T00:56:21.881Z,1625.97
2022-11-04T00:58:50.690Z,1625.30
2022-11-04T01:01:20.370Z,1624.43
2022-11-04T01:03:49.970Z,1624.28
2022-11-04T01:06:19.671Z,1625.82
2022-11-04T01:08:49.570Z,1625.35
2022-11-04T01:11:17.750Z,1615.13
2022-11-04T01:13:46.097Z,1620.03
2022-11-04T01:16:14.496Z,1617.18
2022-11-04T01:18:43.107Z,1615.80
2022-11-04T01:21:13.865Z,1617.45
2022-11-04T01:23:43.149Z,1620.45
2022-11-04T01:26:15.348Z,1619.28
2022-11-04T01:28:43.465Z,1618.75
2022-11-04T01:31:14.152Z,1617.82
2022-11-04T01:33:42.670Z,1628.38
2022-11-04T01:36:11.854Z,1623.63
2022-11-04T01:38:40.171Z,1632.07
2022-11-04T01:41:10.069Z,1631.72
2022-11-04T01:43:49.378Z,1635.05
2022-11-04T01:46:27.163Z,1632.03
2022-11-04T01:48:59.298Z,1635.03
2022-11-04T01:51:29.660Z,1635.85
2022-11-04T01:53:58.087Z,1638.00
2022-11-04T01:56:27.903Z,1635.75
2022-11-04T01:59:02.011Z,1633.03
2022-11-04T02:01:30.786Z,1637.53
2022-11-04T02:04:21.999Z,1631.68
2022-11-04T02:06:52.281Z,1629.93
2022-11-04T02:09:21.973Z,1631.68
2022-11-04T02:12:07.742Z,1631.65
2022-11-04T02:14:37.848Z,1635.45
2022-11-04T02:17:16.770Z,1638.60
2022-11-04T02:20:00.771Z,1628.60
2022-11-04T02:22:59.050Z,1635.20
2022-11-04T02:25:52.831Z,1637.90
2022-11-04T02:28:51.970Z,1633.57
2022-11-04T02:31:27.558Z,1642.20
2022-11-04T02:34:05.560Z,1641.00
2022-11-04T02:36:43.211Z,1635.93
2022-11-04T02:39:23.926Z,1638.40
2022-11-04T02:41:57.830Z,1642.07
2022-11-04T02:44:34.404Z,1641.57
2022-11-04T02:47:07.522Z,1644.10
2022-11-04T02:49:40.600Z,1647.23
2022-11-04T02:52:11.328Z,1644.90
2022-11-04T02:54:43.309Z,1649.88
2022-11-04T02:57:16.302Z,1643.55
2022-11-04T02:59:49.561Z,1644.00
2022-11-04T03:02:26.396Z,1644.95
2022-11-04T03:04:56.603Z,1641.10
2022-11-04T03:07:30.178Z,1641.00
2022-11-04T03:10:06.285Z,1641.75
2022-11-04T03:12:41.143Z,1641.07
2022-11-04T03:15:16.012Z,1638.28
2022-11-04T03:17:51.571Z,1641.45
2022-11-04T03:20:25.612Z,1641.38
2022-11-04T03:22:55.759Z,1639.60
2022-11-04T03:25:28.546Z,1640.47
2022-11-04T03:28:03.429Z,1638.00
2022-11-04T03:30:37.397Z,1639.35
2022-11-04T03:33:13.518Z,1641.70
2022-11-04T03:35:42.198Z,1644.50
2022-11-04T03:38:10.296Z,1642.75
2022-11-04T03:40:38.404Z,1644.40
2022-11-04T03:43:12.017Z,1643.20
2022-11-04T03:45:41.800Z,1641.43
2022-11-04T03:48:12.291Z,1640.65
2022-11-04T03:50:43.125Z,1641.78
2022-11-04T03:53:13.674Z,1637.57
2022-11-04T03:55:51.959Z,1637.85
2022-11-04T03:58:31.414Z,1632.95
2022-11-04T04:01:07.563Z,1637.63
2022-11-04T04:03:43.837Z,1638.28
2022-11-04T04:06:17.167Z,1638.82
2022-11-04T04:08:51.167Z,1642.75
2022-11-04T04:11:24.347Z,1634.90
2022-11-04T04:13:58.037Z,1636.05
2022-11-04T04:16:32.171Z,1630.43
2022-11-04T04:19:06.696Z,1626.80
2022-11-04T04:21:41.358Z,1623.97
2022-11-04T04:24:29.385Z,1627.70
2022-11-04T04:27:16.451Z,1623.57
2022-11-04T04:29:45.728Z,1623.63
2022-11-04T04:32:15.148Z,1623.13
2022-11-04T04:34:45.259Z,1618.35
2022-11-04T04:37:20.223Z,1620.82
2022-11-04T04:40:09.092Z,1624.63
2022-11-04T04:42:55.910Z,1622.32
2022-11-04T04:45:28.460Z,1620.25
2022-11-04T04:47:57.500Z,1621.75
2022-11-04T04:50:29.754Z,1623.83
2022-11-04T04:53:00.478Z,1622.53
2022-11-04T04:55:30.033Z,1621.78
2022-11-04T04:57:58.235Z,1622.43
2022-11-04T05:00:27.533Z,1623.05
2022-11-04T05:02:55.730Z,1621.28
2022-11-04T05:05:24.670Z,1621.53
2022-11-04T05:07:54.278Z,1623.30
2022-11-04T05:10:22.496Z,1619.25
2022-11-04T05:13:08.149Z,1619.72
2022-11-04T05:15:39.110Z,1620.80
2022-11-04T05:18:12.989Z,1619.80
2022-11-04T05:20:40.997Z,1621.13
2022-11-04T05:23:12.275Z,1621.37
2022-11-04T05:25:40.837Z,1617.47
2022-11-04T05:28:10.473Z,1617.43
2022-11-04T05:30:38.938Z,1622.25
2022-11-04T05:33:08.106Z,1624.95
2022-11-04T05:35:36.518Z,1620.05
2022-11-04T05:38:04.661Z,1619.00
2022-11-04T05:40:34.034Z,1624.38
2022-11-04T05:43:02.359Z,1623.13
2022-11-04T05:45:30.859Z,1618.78
2022-11-04T05:48:00.281Z,1620.95
2022-11-04T05:50:29.736Z,1619.75
2022-11-04T05:52:59.093Z,1619.65
2022-11-04T05:55:27.558Z,1619.82
2022-11-04T05:57:57.989Z,1617.43
2022-11-04T06:00:27.051Z,1617.13
2022-11-04T06:02:57.247Z,1620.85
2022-11-04T06:05:28.075Z,1618.63
2022-11-04T06:07:57.426Z,1619.78
2022-11-04T06:10:26.203Z,1618.93
2022-11-04T06:12:54.261Z,1617.88
2022-11-04T06:15:23.665Z,1619.10
2022-11-04T06:17:51.849Z,1620.85
2022-11-04T06:20:19.900Z,1614.25
2022-11-04T06:22:47.932Z,1614.28
2022-11-04T06:25:16.558Z,1619.55
2022-11-04T06:27:44.603Z,1618.38
2022-11-04T06:30:13.616Z,1616.55
2022-11-04T06:32:43.115Z,1615.45
2022-11-04T06:35:11.185Z,1618.00
2022-11-04T06:37:39.351Z,1619.43
2022-11-04T06:40:09.160Z,1617.00
2022-11-04T06:42:37.280Z,1617.65
2022-11-04T06:45:06.156Z,1615.18
2022-11-04T06:47:34.196Z,1617.20
2022-11-04T06:50:27.591Z,1616.32
2022-11-04T06:52:55.654Z,1619.65
2022-11-04T06:55:24.707Z,1618.68
2022-11-04T06:57:52.919Z,1613.88
2022-11-04T07:00:21.213Z,1614.07
2022-11-04T07:02:49.432Z,1622.57
2022-11-04T07:05:19.119Z,1613.53
2022-11-04T07:07:47.392Z,1614.13
2022-11-04T07:10:15.715Z,1616.50
2022-11-04T07:12:43.782Z,1617.75
2022-11-04T07:15:12.954Z,1615.32
2022-11-04T07:17:41.067Z,1615.00
2022-11-04T07:20:13.202Z,1620.15
2022-11-04T07:22:42.613Z,1612.70
2022-11-04T07:25:10.915Z,1619.43
2022-11-04T07:27:39.524Z,1616.55
2022-11-04T07:30:09.797Z,1618.03
2022-11-04T07:32:37.961Z,1623.18
2022-11-04T07:35:06.981Z,1626.30
2022-11-04T07:37:35.164Z,1621.53
2022-11-04T07:40:06.230Z,1623.75
2022-11-04T07:42:34.303Z,1621.78
2022-11-04T07:45:08.723Z,1622.97
2022-11-04T07:47:36.885Z,1621.22
2022-11-04T07:50:10.928Z,1620.72
2022-11-04T07:52:40.217Z,1622.22
2022-11-04T07:55:11.053Z,1623.43
2022-11-04T07:57:39.155Z,1616.07
2022-11-04T08:00:08.220Z,1622.73
2022-11-04T08:02:40.492Z,1618.90
2022-11-04T08:05:09.416Z,1617.47
2022-11-04T08:07:37.476Z,1619.50
2022-11-04T08:10:06.329Z,1618.07
2022-11-04T08:12:35.791Z,1618.72
2022-11-04T08:15:03.918Z,1619.68
2022-11-04T08:17:31.991Z,1617.30
2022-11-04T08:20:00.050Z,1621.28
2022-11-04T08:22:32.793Z,1617.90
2022-11-04T08:25:01.209Z,1623.70
2022-11-04T08:27:29.568Z,1624.23
2022-11-04T08:29:58.949Z,1628.17
2022-11-04T08:32:27.031Z,1627.28
2022-11-04T08:34:55.156Z,1625.20
2022-11-04T08:37:23.265Z,1634.38
2022-11-04T08:39:51.463Z,1634.70
2022-11-04T08:42:19.499Z,1643.07
2022-11-04T08:44:47.602Z,1648.65
2022-11-04T08:47:17.025Z,1643.35
2022-11-04T08:49:45.291Z,1643.72
2022-11-04T08:52:13.343Z,1648.40
2022-11-04T08:54:41.430Z,1644.65
2022-11-04T08:57:10.108Z,1646.63
2022-11-04T08:59:38.377Z,1644.95
2022-11-04T09:02:06.629Z,1645.47
2022-11-04T09:04:36.099Z,1644.25
2022-11-04T09:07:08.259Z,1648.53
2022-11-04T09:09:36.855Z,1643.30
2022-11-04T09:12:05.198Z,1643.00
2022-11-04T09:14:33.255Z,1642.20
2022-11-04T09:17:02.035Z,1647.57
2022-11-04T09:19:32.503Z,1645.23
2022-11-04T09:22:02.042Z,1645.38
2022-11-04T09:24:30.499Z,1640.53
2022-11-04T09:26:58.579Z,1641.60
2022-11-04T09:29:26.673Z,1644.27
2022-11-04T09:31:54.855Z,1642.15
2022-11-04T09:34:22.871Z,1645.43
2022-11-04T09:36:51.016Z,1640.00
2022-11-04T09:39:20.460Z,1640.10
2022-11-04T09:41:57.482Z,1637.50
2022-11-04T09:44:28.382Z,1637.68
2022-11-04T09:47:01.536Z,1638.20
2022-11-04T09:49:35.312Z,1636.22
2022-11-04T09:52:07.735Z,1632.60
2022-11-04T09:54:47.262Z,1629.53
2022-11-04T09:57:19.533Z,1625.05
2022-11-04T09:59:48.497Z,1620.68
2022-11-04T10:02:38.413Z,1623.32
2022-11-04T10:05:16.498Z,1622.60
2022-11-04T10:08:03.855Z,1617.32
2022-11-04T10:10:41.889Z,1628.78
2022-11-04T10:13:21.157Z,1620.97
2022-11-04T10:16:10.195Z,1622.93
2022-11-04T10:18:55.941Z,1626.60
2022-11-04T10:21:36.379Z,1619.15
2022-11-04T10:24:17.192Z,1623.10
2022-11-04T10:26:49.960Z,1622.10
2022-11-04T10:29:29.575Z,1623.25
2022-11-04T10:32:00.806Z,1619.45
2022-11-04T10:34:35.988Z,1627.32
2022-11-04T10:37:05.193Z,1633.63
2022-11-04T10:39:38.329Z,1627.33
2022-11-04T10:42:07.887Z,1625.95
2022-11-04T10:44:38.045Z,1626.85
2022-11-04T10:47:15.209Z,1630.22
2022-11-04T10:50:27.059Z,1633.60
2022-11-04T10:52:46.233Z,1624.13
2022-11-04T10:55:23.146Z,1625.68
2022-11-04T10:57:57.138Z,1621.43
2022-11-04T11:00:40.179Z,1622.60
2022-11-04T11:03:26.712Z,1624.40
2022-11-04T11:05:56.128Z,1627.13
2022-11-04T11:08:32.637Z,1632.77
2022-11-04T11:11:02.207Z,1633.65
2022-11-04T11:13:38.507Z,1631.03
2022-11-04T11:16:13.030Z,1631.13
2022-11-04T11:18:42.322Z,1628.97
2022-11-04T11:21:14.132Z,1631.07
2022-11-04T11:23:45.267Z,1633.15
2022-11-04T11:26:17.440Z,1636.22
2022-11-04T11:28:57.577Z,1635.57
2022-11-04T11:31:27.580Z,1627.30
2022-11-04T11:33:58.963Z,1636.72
2022-11-04T11:36:32.498Z,1637.10
2022-11-04T11:39:07.085Z,1639.78
2022-11-04T11:41:42.501Z,1635.68
2022-11-04T11:44:26.238Z,1637.10
2022-11-04T11:46:56.656Z,1641.72
2022-11-04T11:49:29.022Z,1641.27
2022-11-04T11:52:17.608Z,1640.55
2022-11-04T11:54:53.282Z,1641.93
2022-11-04T11:57:33.902Z,1641.93
2022-11-04T12:03:02.571Z,1637.90
2022-11-04T12:11:46.574Z,1644.25
2022-11-04T12:14:21.085Z,1646.47
2022-11-04T12:16:59.444Z,1645.15
2022-11-04T12:19:48.564Z,1644.75
2022-11-04T12:22:27.202Z,1645.72
2022-11-04T12:25:05.969Z,1650.70
2022-11-04T12:27:41.085Z,1644.93
2022-11-04T12:30:13.467Z,1646.75
2022-11-04T12:33:01.310Z,1645.68
2022-11-04T12:36:07.975Z,1644.80
2022-11-04T12:38:47.388Z,1642.93
2022-11-04T12:44:23.881Z,1642.53
2022-11-04T12:47:03.565Z,1644.18
2022-11-04T12:49:57.875Z,1644.78
2022-11-04T12:52:42.654Z,1642.72
2022-11-04T12:55:26.279Z,1641.80
2022-11-04T12:58:03.472Z,1647.68
2022-11-04T13:00:33.800Z,1646.28
2022-11-04T13:03:07.505Z,1645.07
2022-11-04T13:05:43.746Z,1649.55
2022-11-04T13:08:20.260Z,1644.05
2022-11-04T13:10:54.161Z,1648.75
2022-11-04T13:13:27.722Z,1646.28
2022-11-04T13:15:59.105Z,1643.57
2022-11-04T13:18:31.603Z,1647.20
2022-11-04T13:21:05.373Z,1650.43
2022-11-04T13:23:41.569Z,1644.72
2022-11-04T13:26:15.349Z,1645.57
2022-11-04T13:28:45.826Z,1644.63
2022-11-04T13:31:22.259Z,1644.30
2022-11-04T13:33:58.131Z,1641.05
2022-11-04T13:36:37.962Z,1643.68
2022-11-04T13:39:13.437Z,1644.43
2022-11-04T13:42:16.323Z,1641.18
2022-11-04T13:44:46.544Z,1639.72
2022-11-04T13:47:21.958Z,1640.82
2022-11-04T13:49:53.943Z,1640.97
2022-11-04T13:52:26.797Z,1643.75
2022-11-04T13:54:58.775Z,1644.43
2022-11-04T13:57:29.251Z,1645.80
2022-11-04T14:00:23.618Z,1644.72
2022-11-04T14:02:53.308Z,1644.97
2022-11-04T14:05:58.078Z,1647.18
2022-11-04T14:08:27.587Z,1651.45
2022-11-04T14:11:12.637Z,1657.28
2022-11-04T14:13:48.251Z,1661.53
2022-11-04T14:16:45.557Z,1652.77
2022-11-04T14:19:55.908Z,1659.60
2022-11-04T14:22:30.703Z,1655.63
2022-11-04T14:25:02.625Z,1664.75
2022-11-04T14:27:40.233Z,1663.55
2022-11-04T14:30:28.187Z,1665.60
2022-11-04T14:33:00.030Z,1665.13
2022-11-04T14:35:30.330Z,1667.35
2022-11-04T14:38:04.162Z,1665.28
2022-11-04T14:40:49.528Z,1666.45
2022-11-04T14:43:32.196Z,1667.63
2022-11-04T14:46:02.189Z,1665.63
2022-11-04T14:48:31.167Z,1669.93
2022-11-04T14:51:00.018Z,1665.63
2022-11-04T14:53:34.168Z,1662.57
2022-11-04T14:56:19.042Z,1667.13
2022-11-04T14:58:58.116Z,1665.40
2022-11-04T15:01:32.877Z,1663.35
2022-11-04T15:04:13.371Z,1664.93
2022-11-04T15:06:54.750Z,1666.90
2022-11-04T15:09:25.806Z,1665.40
2022-11-04T15:12:20.394Z,1663.47
2022-11-04T15:14:48.588Z,1664.10
2022-11-04T15:17:20.682Z,1666.18
2022-11-04T15:19:52.270Z,1665.18
2022-11-04T15:22:21.208Z,1669.00
2022-11-04T15:24:50.592Z,1668.20
2022-11-04T15:27:25.892Z,1670.82
2022-11-04T15:29:58.195Z,1667.20
2022-11-04T15:32:26.808Z,1669.30
2022-11-04T15:34:56.447Z,1672.97
2022-11-04T15:37:26.145Z,1668.13
2022-11-04T15:39:57.556Z,1667.85
2022-11-04T15:42:43.002Z,1669.07
2022-11-04T15:45:37.092Z,1667.18
2022-11-04T15:48:28.756Z,1670.00
2022-11-04T15:51:13.478Z,1672.43
2022-11-04T15:53:51.051Z,1669.57
2022-11-04T15:56:23.316Z,1673.60
2022-11-04T15:58:54.366Z,1672.13
2022-11-04T16:01:22.887Z,1670.20
2022-11-04T16:03:53.442Z,1666.50
2022-11-04T16:06:34.908Z,1672.28
2022-11-04T16:09:06.401Z,1669.47
2022-11-04T16:11:34.939Z,1671.22
2022-11-04T16:14:26.583Z,1669.45
2022-11-04T16:16:55.614Z,1670.53
2022-11-04T16:19:26.846Z,1670.80
2022-11-04T16:22:09.090Z,1672.75
2022-11-04T16:24:40.560Z,1676.47
2022-11-04T16:27:10.821Z,1674.47
2022-11-04T16:29:45.218Z,1670.55
2022-11-04T16:32:18.704Z,1672.25
2022-11-04T16:34:49.607Z,1671.30
2022-11-04T16:37:17.876Z,1669.75
2022-11-04T16:39:46.412Z,1668.90
2022-11-04T16:42:16.028Z,1670.55
2022-11-04T16:44:49.525Z,1671.13
2022-11-04T16:47:19.744Z,1673.80
2022-11-04T16:49:48.352Z,1669.22
2022-11-04T16:52:25.491Z,1672.63
2022-11-04T16:54:56.153Z,1671.88
2022-11-04T16:57:25.606Z,1668.65
2022-11-04T16:59:56.664Z,1669.80
2022-11-04T17:02:28.158Z,1670.07
2022-11-04T17:04:56.909Z,1669.70
2022-11-04T17:07:40.672Z,1665.15
2022-11-04T17:10:17.346Z,1670.20
2022-11-04T17:12:45.964Z,1665.03
2022-11-04T17:15:16.781Z,1666.00
2022-11-04T17:17:45.403Z,1668.28
2022-11-04T17:20:17.452Z,1667.27
2022-11-04T17:22:47.017Z,1671.75
2022-11-04T17:25:19.310Z,1667.97
2022-11-04T17:27:48.402Z,1666.25
2022-11-04T17:30:19.263Z,1670.70
2022-11-04T17:32:48.123Z,1668.13
2022-11-04T17:35:16.933Z,1668.78
2022-11-04T17:37:45.208Z,1670.50
2022-11-04T17:40:16.087Z,1665.57
2022-11-04T17:43:04.385Z,1670.05
2022-11-04T17:45:37.994Z,1664.43
2022-11-04T17:48:06.642Z,1668.22
2022-11-04T17:50:37.004Z,1665.68
2022-11-04T17:53:05.353Z,1666.40
2022-11-04T17:55:38.696Z,1667.10
2022-11-04T17:58:06.940Z,1666.75
2022-11-04T18:00:35.512Z,1669.20
2022-11-04T18:03:06.782Z,1666.95
2022-11-04T18:05:35.150Z,1663.10
2022-11-04T18:08:04.059Z,1669.15
2022-11-04T18:10:32.292Z,1665.75
2022-11-04T18:12:59.321Z,1665.78
2022-11-04T18:15:28.321Z,1663.18
2022-11-04T18:17:57.336Z,1663.85
2022-11-04T18:20:27.535Z,1662.53
2022-11-04T18:22:55.690Z,1659.13
2022-11-04T18:25:23.783Z,1652.27
2022-11-04T18:27:51.950Z,1650.53
2022-11-04T18:30:20.264Z,1647.80
2022-11-04T18:32:48.321Z,1642.85
2022-11-04T18:35:16.631Z,1645.05
2022-11-04T18:37:47.601Z,1644.50
2022-11-04T18:40:16.432Z,1650.03
2022-11-04T18:42:44.635Z,1649.32
2022-11-04T18:45:12.955Z,1647.60
2022-11-04T18:47:41.081Z,1646.60
2022-11-04T18:50:10.461Z,1649.75
2022-11-04T18:52:38.551Z,1651.38
2022-11-04T18:55:09.704Z,1654.93
2022-11-04T18:57:37.868Z,1653.25
2022-11-04T19:00:06.885Z,1651.10
2022-11-04T19:02:35.142Z,1657.45
2022-11-04T19:05:03.328Z,1650.25
2022-11-04T19:07:31.463Z,1647.30
2022-11-04T19:09:59.760Z,1647.35
2022-11-04T19:12:46.566Z,1647.27
2022-11-04T19:15:14.659Z,1647.13
2022-11-04T19:17:42.668Z,1645.80
2022-11-04T19:20:12.980Z,1647.60
2022-11-04T19:22:42.345Z,1647.93
2022-11-04T19:25:11.304Z,1648.55
2022-11-04T19:27:40.966Z,1648.32
2022-11-04T19:30:10.030Z,1652.43
2022-11-04T19:32:38.687Z,1650.40
2022-11-04T19:35:07.390Z,1652.80
2022-11-04T19:37:35.466Z,1652.88
2022-11-04T19:40:05.719Z,1649.63
2022-11-04T19:42:51.937Z,1651.35
2022-11-04T19:45:21.480Z,1648.55
2022-11-04T19:47:49.641Z,1648.35
2022-11-04T19:50:18.248Z,1649.93
2022-11-04T19:52:46.428Z,1644.03
2022-11-04T19:55:14.476Z,1645.00
2022-11-04T19:57:43.304Z,1647.60
2022-11-04T20:00:12.327Z,1646.20
2022-11-04T20:02:41.851Z,1645.90
2022-11-04T20:05:10.578Z,1645.35
2022-11-04T20:07:39.488Z,1646.70
2022-11-04T20:10:08.735Z,1643.03
2022-11-04T20:12:55.133Z,1644.32
2022-11-04T20:15:23.877Z,1642.70
2022-11-04T20:17:53.358Z,1644.03
2022-11-04T20:20:21.709Z,1650.85
2022-11-04T20:22:49.823Z,1648.70
2022-11-04T20:25:18.064Z,1642.40
2022-11-04T20:27:46.109Z,1641.45
2022-11-04T20:30:14.570Z,1641.03
2022-11-04T20:32:42.566Z,1640.32
2022-11-04T20:35:12.504Z,1637.78
2022-11-04T20:37:40.623Z,1647.28
2022-11-04T20:40:09.863Z,1643.28
2022-11-04T20:42:38.201Z,1646.63
2022-11-04T20:45:07.473Z,1644.35
2022-11-04T20:47:36.950Z,1648.68
2022-11-04T20:50:05.666Z,1651.73
2022-11-04T20:52:36.632Z,1651.18
2022-11-04T20:55:05.129Z,1650.63
2022-11-04T20:57:33.730Z,1651.53
2022-11-04T21:00:01.931Z,1654.20
2022-11-04T21:02:30.079Z,1653.27
2022-11-04T21:04:58.427Z,1656.47
2022-11-04T21:07:26.775Z,1653.38
2022-11-04T21:09:56.196Z,1651.97
2022-11-04T21:12:24.429Z,1651.53
2022-11-04T21:14:52.462Z,1647.72
2022-11-04T21:17:20.657Z,1651.65
2022-11-04T21:19:48.723Z,1653.18
2022-11-04T21:22:16.901Z,1652.15
2022-11-04T21:24:45.579Z,1659.18
2022-11-04T21:27:15.130Z,1660.43
2022-11-04T21:29:43.196Z,1664.15
2022-11-04T21:32:11.597Z,1661.03
2022-11-04T21:34:39.959Z,1666.45
2022-11-04T21:37:08.066Z,1666.15
2022-11-04T21:39:36.239Z,1663.25
2022-11-04T21:42:04.549Z,1664.28
2022-11-04T21:44:34.118Z,1661.50
2022-11-04T21:47:02.159Z,1659.70
2022-11-04T21:49:30.270Z,1669.63
2022-11-04T21:51:58.362Z,1664.13
2022-11-04T21:54:27.246Z,1662.55
2022-11-04T21:56:55.278Z,1659.40
2022-11-04T21:59:23.466Z,1655.00
2022-11-04T22:01:53.125Z,1646.03
2022-11-04T22:04:21.295Z,1647.15
2022-11-04T22:06:49.565Z,1647.93
2022-11-04T22:09:17.752Z,1646.72
2022-11-04T22:11:46.017Z,1647.17
2022-11-04T22:14:14.141Z,1648.70
2022-11-04T22:16:42.380Z,1648.78
2022-11-04T22:19:13.512Z,1644.88
2022-11-04T22:21:43.042Z,1645.07
2022-11-04T22:24:12.379Z,1648.03
2022-11-04T22:26:40.457Z,1648.47
2022-11-04T22:29:08.926Z,1645.72
2022-11-04T22:31:38.695Z,1649.95
2022-11-04T22:34:07.232Z,1649.93
2022-11-04T22:36:36.848Z,1648.05
2022-11-04T22:39:05.553Z,1648.85
2022-11-04T22:41:34.392Z,1651.38
2022-11-04T22:44:05.137Z,1649.20
2022-11-04T22:46:35.152Z,1648.40
2022-11-04T22:49:03.982Z,1648.38
2022-11-04T22:51:32.569Z,1650.90
2022-11-04T22:54:07.841Z,1649.25
2022-11-04T22:56:36.667Z,1654.43
2022-11-04T22:59:05.788Z,1653.63
2022-11-04T23:01:34.302Z,1652.30
2022-11-04T23:04:02.723Z,1652.10
2022-11-04T23:06:31.131Z,1653.47
2022-11-04T23:09:00.729Z,1651.63
2022-11-04T23:11:49.629Z,1652.00
2022-11-04T23:14:38.361Z,1650.18
2022-11-04T23:17:32.210Z,1651.28
2022-11-04T23:20:00.458Z,1651.50
2022-11-04T23:22:46.060Z,1650.72
2022-11-04T23:25:14.895Z,1649.00
2022-11-04T23:28:05.237Z,1651.55
2022-11-04T23:30:35.602Z,1652.00
2022-11-04T23:33:05.773Z,1651.78
2022-11-04T23:35:53.844Z,1647.60
2022-11-04T23:38:22.289Z,1652.32
2022-11-04T23:41:06.014Z,1647.90
2022-11-04T23:43:36.134Z,1647.07
2022-11-04T23:46:21.965Z,1648.80
2022-11-04T23:49:22.477Z,1647.35
2022-11-04T23:52:07.988Z,1645.03
2022-11-04T23:54:53.320Z,1645.13
2022-11-04T23:57:38.755Z,1647.47
